createdAt,value
2019-05-18T00:04:17.883Z,12.19
2019-05-18T00:09:19.456Z,12.17
2019-05-18T00:14:21.141Z,12.15
2019-05-18T00:19:22.744Z,12.12
2019-05-18T00:24:24.304Z,12.09
2019-05-18T00:29:25.872Z,12.06
2019-05-18T00:34:27.472Z,12.01
2019-05-18T00:39:29.042Z,11.95
2019-05-18T00:44:30.615Z,11.89
2019-05-18T00:49:32.183Z,11.86
2019-05-18T00:54:33.866Z,11.82
2019-05-18T00:59:35.508Z,11.77
2019-05-18T01:04:37.063Z,11.72
2019-05-18T01:09:38.774Z,11.68
2019-05-18T01:14:40.334Z,11.60
2019-05-18T01:19:41.926Z,11.56
2019-05-18T01:24:43.504Z,11.46
2019-05-18T01:29:45.100Z,11.36
2019-05-18T01:34:46.854Z,11.31
2019-05-18T01:39:48.540Z,11.29
2019-05-18T01:44:50.242Z,11.26
2019-05-18T01:49:51.974Z,11.17
2019-05-18T01:54:53.553Z,11.17
2019-05-18T01:59:55.290Z,11.17
2019-05-18T02:04:56.976Z,11.05
2019-05-18T02:09:58.587Z,11.01
2019-05-18T02:15:00.232Z,11.07
2019-05-18T02:20:02.278Z,11.03
2019-05-18T02:25:04.135Z,10.78
2019-05-18T02:30:06.496Z,10.69
2019-05-18T02:35:08.197Z,10.60
2019-05-18T02:40:09.880Z,10.55
2019-05-18T02:45:11.806Z,10.50
2019-05-18T02:50:13.509Z,10.65
2019-05-18T02:55:15.204Z,10.75
2019-05-18T03:00:16.857Z,10.91
2019-05-18T03:05:18.757Z,11.02
2019-05-18T03:10:20.443Z,11.07
2019-05-18T03:15:22.135Z,11.08
2019-05-18T03:20:23.800Z,11.09
2019-05-18T03:25:25.410Z,11.09
2019-05-18T03:30:27.098Z,11.13
2019-05-18T03:35:28.731Z,11.14
2019-05-18T03:40:30.393Z,11.17
2019-05-18T03:45:31.958Z,11.23
2019-05-18T03:50:33.492Z,11.27
2019-05-18T03:55:35.052Z,11.34
2019-05-18T04:00:36.618Z,11.42
2019-05-18T04:05:38.182Z,11.53
2019-05-18T04:10:39.741Z,11.60
2019-05-18T04:15:41.304Z,11.63
2019-05-18T04:20:42.856Z,11.67
2019-05-18T04:25:44.426Z,11.70
2019-05-18T04:30:45.978Z,11.73
2019-05-18T04:35:47.519Z,11.78
2019-05-18T04:40:49.076Z,11.83
2019-05-18T04:45:50.633Z,11.89
2019-05-18T04:50:52.193Z,11.95
2019-05-18T04:55:53.781Z,12.01
2019-05-18T05:00:55.321Z,12.07
2019-05-18T05:05:56.865Z,12.14
2019-05-18T05:10:58.405Z,12.22
2019-05-18T05:15:59.945Z,12.28
2019-05-18T05:21:01.480Z,12.33
2019-05-18T05:26:03.135Z,12.43
2019-05-18T05:31:04.675Z,12.50
2019-05-18T05:36:06.216Z,12.55
2019-05-18T05:41:07.789Z,12.63
2019-05-18T05:46:09.359Z,12.70
2019-05-18T05:51:10.915Z,12.78
2019-05-18T05:56:12.547Z,12.84
2019-05-18T06:01:14.109Z,12.93
2019-05-18T06:06:15.659Z,13.01
2019-05-18T06:11:17.197Z,13.10
2019-05-18T06:16:18.745Z,13.19
2019-05-18T06:21:20.387Z,13.27
2019-05-18T06:26:24.223Z,13.35
2019-05-18T06:31:25.400Z,13.41
2019-05-18T06:36:26.962Z,13.47
2019-05-18T06:41:28.529Z,13.56
2019-05-18T06:46:30.104Z,13.61
2019-05-18T06:51:31.661Z,13.68
2019-05-18T06:56:33.614Z,13.78
2019-05-18T07:01:35.156Z,13.90
2019-05-18T07:06:36.719Z,13.92
2019-05-18T07:11:38.405Z,13.98
2019-05-18T07:16:39.950Z,14.01
2019-05-18T07:21:41.591Z,14.11
2019-05-18T07:26:43.148Z,14.23
2019-05-18T07:31:44.701Z,14.34
2019-05-18T07:36:46.250Z,14.36
2019-05-18T07:41:47.823Z,14.52
2019-05-18T07:46:49.406Z,14.67
2019-05-18T07:51:50.989Z,14.80
2019-05-18T07:56:52.705Z,14.85
2019-05-18T08:01:54.261Z,14.87
2019-05-18T08:06:55.879Z,15.06
2019-05-18T08:11:57.443Z,15.26
2019-05-18T08:16:59.016Z,15.22
2019-05-18T08:22:00.585Z,15.07
2019-05-18T08:27:02.557Z,15.30
2019-05-18T08:32:04.324Z,15.50
2019-05-18T08:37:05.917Z,15.83
2019-05-18T08:42:07.611Z,15.91
2019-05-18T08:47:09.149Z,15.78
2019-05-18T08:52:10.936Z,15.62
2019-05-18T08:57:12.483Z,15.89
2019-05-18T09:02:14.060Z,16.08
2019-05-18T09:07:15.645Z,16.13
2019-05-18T09:12:17.334Z,16.66
2019-05-18T09:17:18.890Z,16.69
2019-05-18T09:22:23.165Z,16.80
2019-05-18T09:27:24.144Z,16.77
2019-05-18T09:32:25.702Z,16.72
2019-05-18T09:37:27.252Z,16.84
2019-05-18T09:42:29.017Z,16.83
2019-05-18T09:47:30.569Z,17.10
2019-05-18T09:52:44.164Z,17.43
2019-05-18T09:57:35.772Z,17.49
2019-05-18T10:02:37.479Z,17.60
2019-05-18T10:07:39.065Z,17.81
2019-05-18T10:12:40.670Z,17.92
2019-05-18T10:17:42.261Z,17.92
2019-05-18T10:22:55.201Z,18.15
2019-05-18T10:27:47.377Z,18.16
2019-05-18T10:32:48.959Z,18.28
2019-05-18T10:37:50.533Z,18.16
2019-05-18T10:42:52.112Z,18.30
2019-05-18T10:47:55.355Z,18.81
2019-05-18T10:52:56.949Z,18.88
2019-05-18T10:57:58.602Z,18.79
2019-05-18T11:03:00.309Z,19.20
2019-05-18T11:08:02.900Z,19.49
2019-05-18T11:13:04.495Z,19.29
2019-05-18T11:18:06.168Z,19.55
2019-05-18T11:23:07.773Z,19.79
2019-05-18T11:28:09.588Z,19.82
2019-05-18T11:33:11.328Z,20.28
2019-05-18T11:38:13.051Z,20.36
2019-05-18T11:43:14.720Z,20.30
2019-05-18T11:48:16.356Z,20.52
2019-05-18T11:53:18.098Z,20.98
2019-05-18T11:58:19.712Z,21.47
2019-05-18T12:03:21.320Z,22.35
2019-05-18T12:08:22.984Z,22.61
2019-05-18T12:13:24.665Z,21.88
2019-05-18T12:18:26.276Z,21.62
2019-05-18T12:23:28.580Z,23.22
2019-05-18T12:28:31.533Z,22.67
2019-05-18T12:33:33.216Z,23.74
2019-05-18T12:38:34.798Z,27.16
2019-05-18T12:43:36.506Z,31.56
2019-05-18T12:48:38.214Z,28.47
2019-05-18T12:53:39.910Z,33.87
2019-05-18T12:58:41.474Z,35.19
2019-05-18T13:03:43.053Z,30.54
2019-05-18T13:08:44.729Z,27.55
2019-05-18T13:13:46.286Z,32.14
2019-05-18T13:18:47.868Z,35.72
2019-05-18T13:23:49.475Z,29.30
2019-05-18T13:28:51.153Z,29.07
2019-05-18T13:33:52.711Z,28.79
2019-05-18T13:38:54.386Z,27.27
2019-05-18T13:43:56.034Z,26.19
2019-05-18T13:48:57.592Z,26.55
2019-05-18T13:53:59.192Z,26.95
2019-05-18T13:59:00.806Z,26.76
2019-05-18T14:04:02.645Z,26.12
2019-05-18T14:09:04.652Z,25.56
2019-05-18T14:14:06.399Z,25.87
2019-05-18T14:19:08.085Z,24.79
2019-05-18T14:24:09.757Z,25.18
2019-05-18T14:29:11.366Z,25.79
2019-05-18T14:34:13.037Z,26.69
2019-05-18T14:39:15.486Z,27.20
2019-05-18T14:44:17.094Z,27.19
2019-05-18T14:49:18.670Z,27.08
2019-05-18T14:54:24.992Z,27.71
2019-05-18T14:59:23.722Z,28.78
2019-05-18T15:04:25.409Z,30.36
2019-05-18T15:09:26.995Z,31.43
2019-05-18T15:14:28.543Z,32.25
2019-05-18T15:19:30.147Z,33.18
2019-05-18T15:24:31.845Z,34.49
2019-05-18T15:29:33.435Z,36.08
2019-05-18T15:34:35.008Z,35.26
2019-05-18T15:39:36.577Z,38.49
2019-05-18T15:44:38.184Z,40.10
2019-05-18T15:49:39.755Z,41.38
2019-05-18T15:54:41.351Z,40.42
2019-05-18T15:59:42.959Z,42.64
2019-05-18T16:04:44.558Z,44.16
2019-05-18T16:09:46.335Z,45.19
2019-05-18T16:14:47.909Z,45.95
2019-05-18T16:19:49.576Z,45.95
2019-05-18T16:24:51.309Z,44.66
2019-05-18T16:29:52.871Z,40.19
2019-05-18T16:34:54.424Z,34.09
2019-05-18T16:39:56.078Z,30.54
2019-05-18T16:44:57.656Z,28.77
2019-05-18T16:49:59.299Z,27.89
2019-05-18T16:55:00.863Z,27.70
2019-05-18T17:00:03.672Z,27.70
2019-05-18T17:05:05.450Z,27.77
2019-05-18T17:10:07.509Z,27.30
2019-05-18T17:15:09.464Z,27.13
2019-05-18T17:20:11.489Z,27.60
2019-05-18T17:25:13.272Z,28.45
2019-05-18T17:30:15.447Z,28.43
2019-05-18T17:35:17.106Z,29.26
2019-05-18T17:40:18.853Z,29.70
2019-05-18T17:45:20.506Z,27.11
2019-05-18T17:50:22.161Z,25.66
2019-05-18T17:55:23.710Z,25.13
2019-05-18T18:00:25.362Z,25.38
2019-05-18T18:05:26.903Z,27.29
2019-05-18T18:10:28.589Z,28.97
2019-05-18T18:15:30.223Z,28.20
2019-05-18T18:20:31.891Z,27.20
2019-05-18T18:25:33.571Z,26.11
2019-05-18T18:30:35.253Z,25.32
2019-05-18T18:35:39.556Z,24.69
2019-05-18T18:40:40.525Z,23.99
2019-05-18T18:45:42.277Z,23.27
2019-05-18T18:50:43.950Z,22.57
2019-05-18T18:55:45.608Z,21.91
2019-05-18T19:00:47.176Z,21.41
2019-05-18T19:05:48.730Z,21.08
2019-05-18T19:10:50.389Z,20.83
2019-05-18T19:15:52.055Z,20.62
2019-05-18T19:20:53.640Z,20.48
2019-05-18T19:25:55.220Z,20.35
2019-05-18T19:30:56.781Z,20.21
2019-05-18T19:35:58.341Z,20.08
2019-05-18T19:40:59.925Z,19.94
2019-05-18T19:46:01.599Z,19.80
2019-05-18T19:51:03.268Z,19.65
2019-05-18T19:56:04.922Z,19.51
2019-05-18T20:01:06.494Z,19.36
2019-05-18T20:06:08.165Z,19.21
2019-05-18T20:11:09.721Z,19.02
2019-05-18T20:16:11.280Z,18.96
2019-05-18T20:21:12.825Z,18.85
2019-05-18T20:26:14.388Z,18.74
2019-05-18T20:31:15.950Z,18.68
2019-05-18T20:36:17.540Z,18.63
2019-05-18T20:41:19.136Z,18.57
2019-05-18T20:46:20.835Z,18.50
2019-05-18T20:51:22.385Z,18.38
2019-05-18T20:56:24.043Z,18.25
2019-05-18T21:01:25.740Z,18.11
2019-05-18T21:06:27.308Z,18.05
2019-05-18T21:11:28.972Z,18.01
2019-05-18T21:16:30.548Z,17.94
2019-05-18T21:21:32.233Z,17.86
2019-05-18T21:26:34.067Z,17.77
2019-05-18T21:31:35.618Z,17.68
2019-05-18T21:36:37.178Z,17.62
2019-05-18T21:41:38.725Z,17.55
2019-05-18T21:46:40.278Z,17.45
2019-05-18T21:51:41.840Z,17.35
2019-05-18T21:56:43.391Z,17.27
2019-05-18T22:01:44.958Z,17.07
2019-05-18T22:06:46.500Z,16.83
2019-05-18T22:11:48.175Z,16.79
2019-05-18T22:16:49.714Z,16.78
2019-05-18T22:21:51.287Z,16.78
2019-05-18T22:26:52.833Z,16.73
2019-05-18T22:31:54.496Z,16.71
2019-05-18T22:36:56.075Z,16.60
2019-05-18T22:41:57.744Z,16.50
2019-05-18T22:46:59.331Z,16.46
2019-05-18T22:52:00.914Z,16.41
2019-05-18T22:57:02.498Z,16.34
2019-05-18T23:02:04.171Z,16.28
2019-05-18T23:07:05.711Z,16.23
2019-05-18T23:12:07.425Z,16.14
2019-05-18T23:17:09.067Z,16.13
2019-05-18T23:22:10.627Z,16.12
2019-05-18T23:27:12.169Z,16.09
2019-05-18T23:32:13.844Z,16.06
2019-05-18T23:37:15.394Z,15.99
2019-05-18T23:42:16.954Z,15.96
2019-05-18T23:47:18.511Z,15.97
2019-05-18T23:52:20.063Z,15.96
2019-05-18T23:57:21.642Z,15.89
